createdAt,value
2017-10-02T00:00:59.909Z,0
2017-10-02T00:01:59.947Z,0
2017-10-02T00:02:59.946Z,0
2017-10-02T00:03:59.898Z,0
2017-10-02T00:04:59.985Z,0
2017-10-02T00:05:59.962Z,0
2017-10-02T00:06:59.949Z,0
2017-10-02T00:07:59.919Z,0
2017-10-02T00:08:59.994Z,0
2017-10-02T00:09:59.920Z,0
2017-10-02T00:10:59.939Z,0
2017-10-02T00:11:59.929Z,0
2017-10-02T00:12:59.926Z,0
2017-10-02T00:13:59.922Z,0
2017-10-02T00:14:59.896Z,0
2017-10-02T00:15:59.962Z,0
2017-10-02T00:16:59.895Z,0
2017-10-02T00:18:00.002Z,0
2017-10-02T00:18:59.928Z,0
2017-10-02T00:19:59.930Z,0
2017-10-02T00:20:59.926Z,0
2017-10-02T00:21:59.927Z,0
2017-10-02T00:22:59.933Z,0
2017-10-02T00:23:59.942Z,0
2017-10-02T00:24:59.926Z,0
2017-10-02T00:25:59.932Z,0
2017-10-02T00:26:59.961Z,0
2017-10-02T00:27:59.928Z,0
2017-10-02T00:28:59.909Z,0
2017-10-02T00:29:59.929Z,0
2017-10-02T00:30:59.936Z,0
2017-10-02T00:31:59.965Z,0
2017-10-02T00:32:59.964Z,0
2017-10-02T00:33:59.889Z,0
2017-10-02T00:35:59.941Z,0
2017-10-02T00:36:59.865Z,0
2017-10-02T00:37:59.935Z,0
2017-10-02T00:38:59.881Z,0
2017-10-02T00:39:59.907Z,0
2017-10-02T00:40:59.931Z,0
2017-10-02T00:41:59.893Z,0
2017-10-02T00:42:59.937Z,0
2017-10-02T00:43:59.943Z,0
2017-10-02T00:44:59.974Z,0
2017-10-02T00:45:59.958Z,0
2017-10-02T00:46:59.977Z,0
2017-10-02T00:47:59.976Z,0
2017-10-02T00:48:59.983Z,0
2017-10-02T00:49:59.980Z,0
2017-10-02T00:51:00.002Z,0
2017-10-02T00:51:59.936Z,0
2017-10-02T00:52:59.996Z,0
2017-10-02T00:53:59.984Z,0
2017-10-02T00:54:59.982Z,0
2017-10-02T00:56:00.031Z,0
2017-10-02T00:56:59.983Z,0
2017-10-02T00:57:59.984Z,0
2017-10-02T00:59:00.048Z,0
2017-10-02T01:00:00.036Z,0
2017-10-02T01:00:59.990Z,0
2017-10-02T01:02:00.041Z,0
2017-10-02T01:03:00.054Z,0
2017-10-02T01:04:00.031Z,0
2017-10-02T01:05:00.039Z,0
2017-10-02T01:06:00.063Z,0
2017-10-02T01:06:59.992Z,0
2017-10-02T01:07:59.993Z,0
2017-10-02T01:09:00.035Z,0
2017-10-02T01:09:59.974Z,0
2017-10-02T01:11:00.057Z,0
2017-10-02T01:12:00.037Z,0
2017-10-02T01:12:59.997Z,0
2017-10-02T01:14:00.051Z,0
2017-10-02T01:15:00.048Z,0
2017-10-02T01:16:00.048Z,0
2017-10-02T01:16:59.995Z,0
2017-10-02T01:18:00.001Z,0
2017-10-02T01:19:00.042Z,0
2017-10-02T01:19:59.999Z,0
2017-10-02T01:21:00.047Z,0
2017-10-02T01:21:59.950Z,0
2017-10-02T01:23:00.002Z,0
2017-10-02T01:23:59.958Z,0
2017-10-02T01:25:00.012Z,0
2017-10-02T01:25:59.966Z,0
2017-10-02T01:26:59.938Z,0
2017-10-02T01:27:59.926Z,0
2017-10-02T01:28:59.917Z,0
2017-10-02T01:29:59.954Z,0
2017-10-02T01:30:59.972Z,0
2017-10-02T01:31:59.895Z,0
2017-10-02T01:32:59.957Z,0
2017-10-02T01:34:00.052Z,0
2017-10-02T01:35:00.012Z,0
2017-10-02T01:36:00.072Z,0
2017-10-02T01:37:00.008Z,0
2017-10-02T01:38:00.018Z,0
2017-10-02T01:39:00.011Z,0
2017-10-02T01:40:00.012Z,0
2017-10-02T01:40:59.964Z,0
2017-10-02T01:42:00.009Z,0
2017-10-02T01:43:00.008Z,0
2017-10-02T01:44:00.060Z,0
2017-10-02T01:44:59.961Z,0
2017-10-02T01:46:00.058Z,0
2017-10-02T01:46:59.994Z,0
2017-10-02T01:48:00.020Z,0
2017-10-02T01:49:00.014Z,0
2017-10-02T01:50:00.086Z,0
2017-10-02T01:51:00.091Z,0
2017-10-02T01:52:00.020Z,0
2017-10-02T01:53:00.024Z,0
2017-10-02T01:54:00.021Z,0
2017-10-02T01:55:00.017Z,0
2017-10-02T01:55:59.968Z,0
2017-10-02T01:57:00.001Z,0
2017-10-02T01:58:00.070Z,0
2017-10-02T01:59:00.041Z,0
2017-10-02T02:00:00.012Z,0
2017-10-02T02:01:00.024Z,0
2017-10-02T02:02:00.029Z,0
2017-10-02T02:03:00.069Z,0
2017-10-02T02:04:00.073Z,0
2017-10-02T02:05:00.073Z,0
2017-10-02T02:06:00.074Z,0
2017-10-02T02:07:00.027Z,0
2017-10-02T02:08:00.025Z,0
2017-10-02T02:09:00.081Z,0
2017-10-02T02:10:00.025Z,0
2017-10-02T02:11:00.077Z,0
2017-10-02T02:12:00.078Z,0
2017-10-02T02:13:00.079Z,0
2017-10-02T02:14:00.095Z,0
2017-10-02T02:15:00.038Z,0
2017-10-02T02:15:59.987Z,0
2017-10-02T02:17:00.195Z,0
2017-10-02T02:18:00.079Z,0
2017-10-02T02:19:00.031Z,0
2017-10-02T02:20:00.087Z,0
2017-10-02T02:21:00.100Z,0
2017-10-02T02:22:00.015Z,0
2017-10-02T02:23:00.082Z,0
2017-10-02T02:24:00.083Z,0
2017-10-02T02:24:59.985Z,0
2017-10-02T02:26:00.047Z,0
2017-10-02T02:27:00.019Z,0
2017-10-02T02:28:00.104Z,0
2017-10-02T02:29:00.102Z,0
2017-10-02T02:30:00.086Z,0
2017-10-02T02:31:00.110Z,0
2017-10-02T02:32:00.025Z,0
2017-10-02T02:33:00.057Z,0
2017-10-02T02:34:00.093Z,0
2017-10-02T02:35:00.120Z,0
2017-10-02T02:36:00.044Z,0
2017-10-02T02:37:00.091Z,0
2017-10-02T02:38:00.092Z,0
2017-10-02T02:39:00.042Z,0
2017-10-02T02:40:00.121Z,0
2017-10-02T02:41:00.100Z,0
2017-10-02T02:42:00.046Z,0
2017-10-02T02:43:00.045Z,0
2017-10-02T02:44:00.013Z,0
2017-10-02T02:45:00.048Z,0
2017-10-02T02:46:00.050Z,0
2017-10-02T02:46:59.987Z,0
2017-10-02T02:48:00.016Z,0
2017-10-02T02:49:00.019Z,0
2017-10-02T02:50:00.051Z,0
2017-10-02T02:50:59.990Z,0
2017-10-02T02:51:59.990Z,0
2017-10-02T02:53:00.053Z,0
2017-10-02T02:54:00.071Z,0
2017-10-02T02:55:00.020Z,0
2017-10-02T02:56:00.021Z,0
2017-10-02T02:57:00.016Z,0
2017-10-02T02:57:59.994Z,0
2017-10-02T02:59:00.023Z,0
2017-10-02T03:00:00.064Z,0
2017-10-02T03:01:00.024Z,0
2017-10-02T03:01:59.994Z,0
2017-10-02T03:02:59.998Z,0
2017-10-02T03:03:59.981Z,0
2017-10-02T03:05:00.026Z,0
2017-10-02T03:06:00.026Z,0
2017-10-02T03:07:00.031Z,0
2017-10-02T03:08:00.005Z,0
2017-10-02T03:09:00.026Z,0
2017-10-02T03:10:00.016Z,0
2017-10-02T03:11:00.037Z,0
2017-10-02T03:11:59.988Z,0
2017-10-02T03:13:00.070Z,0
2017-10-02T03:14:00.075Z,0
2017-10-02T03:15:00.065Z,0
2017-10-02T03:16:00.120Z,0
2017-10-02T03:17:00.040Z,0
2017-10-02T03:18:00.135Z,0
2017-10-02T03:19:00.117Z,0
2017-10-02T03:20:00.073Z,0
2017-10-02T03:21:00.050Z,0
2017-10-02T03:22:00.071Z,0
2017-10-02T03:23:00.073Z,0
2017-10-02T03:24:00.116Z,0
2017-10-02T03:25:00.072Z,0
2017-10-02T03:26:00.055Z,0
2017-10-02T03:27:00.077Z,0
2017-10-02T03:28:00.054Z,0
2017-10-02T03:29:00.026Z,0
2017-10-02T03:30:00.072Z,0
2017-10-02T03:31:00.127Z,0
2017-10-02T03:32:00.123Z,0
2017-10-02T03:33:00.130Z,0
2017-10-02T03:34:00.021Z,0
2017-10-02T03:35:00.075Z,0
2017-10-02T03:36:00.080Z,0
2017-10-02T03:37:00.079Z,0
2017-10-02T03:38:00.019Z,0
2017-10-02T03:39:00.045Z,0
2017-10-02T03:40:00.077Z,0
2017-10-02T03:41:00.051Z,0
2017-10-02T03:42:00.054Z,0
2017-10-02T03:43:00.021Z,0
2017-10-02T03:44:00.104Z,0
2017-10-02T03:45:00.173Z,0
2017-10-02T03:46:00.087Z,0
2017-10-02T03:47:00.132Z,0
2017-10-02T03:48:00.137Z,0
2017-10-02T03:49:00.263Z,0
2017-10-02T03:50:00.088Z,0
2017-10-02T03:51:00.100Z,0
2017-10-02T03:52:00.135Z,0
2017-10-02T03:53:00.138Z,0
2017-10-02T03:54:00.133Z,0
2017-10-02T03:55:00.107Z,0
2017-10-02T03:56:00.068Z,0
2017-10-02T03:57:00.068Z,0
2017-10-02T03:58:00.070Z,0
2017-10-02T03:59:00.105Z,0
2017-10-02T04:00:00.062Z,0
2017-10-02T04:01:00.132Z,0
2017-10-02T04:02:00.094Z,0
2017-10-02T04:03:00.114Z,0
2017-10-02T04:04:00.089Z,0
2017-10-02T04:05:00.136Z,0
2017-10-02T04:06:00.144Z,0
2017-10-02T04:07:00.044Z,0
2017-10-02T04:08:00.109Z,0
2017-10-02T04:09:00.097Z,0
2017-10-02T04:10:00.144Z,0
2017-10-02T04:11:00.100Z,0
2017-10-02T04:12:00.079Z,0
2017-10-02T04:13:00.100Z,0
2017-10-02T04:14:00.145Z,0
2017-10-02T04:15:00.150Z,0
2017-10-02T04:16:00.084Z,0
2017-10-02T04:17:00.134Z,0
2017-10-02T04:18:00.085Z,0
2017-10-02T04:19:00.125Z,0
2017-10-02T04:20:00.184Z,0
2017-10-02T04:21:00.154Z,0
2017-10-02T04:22:00.178Z,0
2017-10-02T04:23:00.153Z,0
2017-10-02T04:24:00.112Z,0
2017-10-02T04:25:00.153Z,0
2017-10-02T04:26:00.065Z,0
2017-10-02T04:27:00.063Z,0
2017-10-02T04:28:00.165Z,0
2017-10-02T04:29:00.144Z,0
2017-10-02T04:30:00.154Z,0
2017-10-02T04:31:00.094Z,0
2017-10-02T04:32:00.160Z,0
2017-10-02T04:33:00.182Z,0
2017-10-02T04:34:00.112Z,0
2017-10-02T04:35:00.162Z,0
2017-10-02T04:36:00.112Z,0
2017-10-02T04:37:00.287Z,0
2017-10-02T04:38:00.121Z,0
2017-10-02T04:39:00.118Z,0
2017-10-02T04:40:00.122Z,0
2017-10-02T04:41:00.122Z,0
2017-10-02T04:42:00.124Z,0
2017-10-02T04:43:00.121Z,0
2017-10-02T04:44:00.118Z,0
2017-10-02T04:45:00.089Z,0
2017-10-02T04:46:00.084Z,0
2017-10-02T04:47:00.127Z,0
2017-10-02T04:48:00.046Z,0
2017-10-02T04:49:00.128Z,0
2017-10-02T04:50:00.079Z,0
2017-10-02T04:51:00.071Z,0
2017-10-02T04:52:00.063Z,0
2017-10-02T04:53:00.040Z,0
2017-10-02T04:54:00.021Z,0
2017-10-02T04:55:00.174Z,4
2017-10-02T04:56:00.093Z,4
2017-10-02T04:57:00.092Z,4
2017-10-02T04:58:00.098Z,0
2017-10-02T04:59:00.089Z,0
2017-10-02T05:00:00.069Z,4
2017-10-02T05:01:00.165Z,4
2017-10-02T05:02:00.143Z,4
2017-10-02T05:03:00.081Z,4
2017-10-02T05:04:00.166Z,4
2017-10-02T05:05:00.129Z,8
2017-10-02T05:06:00.130Z,8
2017-10-02T05:07:00.096Z,12
2017-10-02T05:08:00.098Z,12
2017-10-02T05:09:00.131Z,16
2017-10-02T05:10:00.132Z,20
2017-10-02T05:11:00.074Z,24
2017-10-02T05:12:00.076Z,28
2017-10-02T05:13:00.087Z,32
2017-10-02T05:14:00.072Z,36
2017-10-02T05:15:00.139Z,48
2017-10-02T05:16:00.138Z,56
2017-10-02T05:17:00.157Z,64
2017-10-02T05:18:00.118Z,80
2017-10-02T05:19:00.141Z,92
2017-10-02T05:20:00.186Z,100
2017-10-02T05:21:00.183Z,112
2017-10-02T05:22:00.096Z,120
2017-10-02T05:23:00.144Z,124
2017-10-02T05:24:00.195Z,148
2017-10-02T05:25:00.311Z,164
2017-10-02T05:26:00.143Z,188
2017-10-02T05:27:00.195Z,212
2017-10-02T05:28:00.197Z,244
2017-10-02T05:29:00.198Z,276
2017-10-02T05:30:00.130Z,292
2017-10-02T05:31:00.150Z,296
2017-10-02T05:32:00.146Z,300
2017-10-02T05:33:00.194Z,316
2017-10-02T05:34:00.197Z,332
2017-10-02T05:35:00.094Z,372
2017-10-02T05:36:00.167Z,408
2017-10-02T05:37:00.130Z,428
2017-10-02T05:38:00.096Z,420
2017-10-02T05:39:00.124Z,436
2017-10-02T05:40:00.195Z,440
2017-10-02T05:41:00.114Z,468
2017-10-02T05:42:00.105Z,480
2017-10-02T05:43:00.214Z,496
2017-10-02T05:44:00.188Z,524
2017-10-02T05:45:00.158Z,544
2017-10-02T05:46:00.210Z,556
2017-10-02T05:47:00.119Z,552
2017-10-02T05:48:00.096Z,532
2017-10-02T05:49:00.128Z,508
2017-10-02T05:50:00.096Z,492
2017-10-02T05:51:00.155Z,476
2017-10-02T05:52:00.097Z,412
2017-10-02T05:53:00.099Z,452
2017-10-02T05:54:00.100Z,420
2017-10-02T05:55:00.128Z,428
2017-10-02T05:56:00.130Z,452
2017-10-02T05:57:00.103Z,520
2017-10-02T05:58:00.161Z,616
2017-10-02T05:59:00.159Z,732
2017-10-02T06:00:00.161Z,828
2017-10-02T06:01:00.161Z,920
2017-10-02T06:02:00.102Z,992
2017-10-02T06:03:00.101Z,1084
2017-10-02T06:04:00.103Z,1220
2017-10-02T06:05:00.137Z,1304
2017-10-02T06:06:00.209Z,1364
2017-10-02T06:07:00.176Z,1396
2017-10-02T06:08:00.115Z,1512
2017-10-02T06:10:00.201Z,1904
2017-10-02T06:11:00.150Z,2028
2017-10-02T06:12:00.135Z,2052
2017-10-02T06:13:00.122Z,2088
2017-10-02T06:14:00.167Z,2000
2017-10-02T06:15:00.134Z,1904
2017-10-02T06:16:00.090Z,1896
2017-10-02T06:17:00.184Z,2012
2017-10-02T06:18:00.110Z,1972
2017-10-02T06:19:00.181Z,1960
2017-10-02T06:20:00.142Z,2024
2017-10-02T06:21:00.112Z,1872
2017-10-02T06:22:00.141Z,1832
2017-10-02T06:23:00.132Z,1748
2017-10-02T06:24:00.185Z,1724
2017-10-02T06:25:00.174Z,1760
2017-10-02T06:26:00.172Z,1808
2017-10-02T06:27:00.177Z,1948
2017-10-02T06:28:00.113Z,2096
2017-10-02T06:29:00.119Z,2320
2017-10-02T06:30:00.141Z,2540
2017-10-02T06:31:00.144Z,2680
2017-10-02T06:32:00.116Z,2744
2017-10-02T06:33:00.179Z,2816
2017-10-02T06:34:00.145Z,2728
2017-10-02T06:35:00.133Z,2676
2017-10-02T06:36:00.144Z,2628
2017-10-02T06:37:00.116Z,2628
2017-10-02T06:38:00.155Z,2612
2017-10-02T06:39:00.123Z,2600
2017-10-02T06:40:00.184Z,2628
2017-10-02T06:41:00.127Z,2620
2017-10-02T06:42:00.185Z,2660
2017-10-02T06:43:00.152Z,2792
2017-10-02T06:44:00.154Z,2948
2017-10-02T06:45:00.231Z,3040
2017-10-02T06:46:00.245Z,2908
2017-10-02T06:47:00.258Z,2664
2017-10-02T06:48:00.170Z,2492
2017-10-02T06:49:00.190Z,2328
2017-10-02T06:50:00.195Z,2384
2017-10-02T06:51:00.248Z,2388
2017-10-02T06:52:00.248Z,2472
2017-10-02T06:53:00.251Z,2656
2017-10-02T06:54:00.244Z,2864
2017-10-02T06:55:00.148Z,3168
2017-10-02T06:56:00.243Z,3592
2017-10-02T06:57:00.198Z,3564
2017-10-02T06:58:00.182Z,3280
2017-10-02T07:00:00.151Z,3828
2017-10-02T07:01:00.204Z,3816
2017-10-02T07:02:00.245Z,3360
2017-10-02T07:03:00.212Z,2908
2017-10-02T07:04:00.182Z,2572
2017-10-02T07:05:00.141Z,2452
2017-10-02T07:06:00.189Z,2508
2017-10-02T07:07:00.147Z,2640
2017-10-02T07:08:00.118Z,2716
2017-10-02T07:09:00.114Z,2784
2017-10-02T07:10:00.171Z,2848
2017-10-02T07:11:00.179Z,3048
2017-10-02T07:12:00.295Z,3244
2017-10-02T07:13:00.161Z,3264
2017-10-02T07:14:00.176Z,3420
2017-10-02T07:15:00.171Z,3792
2017-10-02T07:16:00.213Z,4072
2017-10-02T07:17:00.186Z,4188
2017-10-02T07:18:00.241Z,4280
2017-10-02T07:19:00.224Z,4244
2017-10-02T07:20:00.155Z,4032
2017-10-02T07:21:00.216Z,3664
2017-10-02T07:22:00.249Z,3644
2017-10-02T07:23:00.163Z,3596
2017-10-02T07:24:00.227Z,3740
2017-10-02T07:25:00.182Z,3876
2017-10-02T07:26:00.229Z,3976
2017-10-02T07:27:00.262Z,3868
2017-10-02T07:28:00.199Z,3924
2017-10-02T07:29:00.199Z,3804
2017-10-02T07:30:00.264Z,3936
2017-10-02T07:31:00.172Z,4108
2017-10-02T07:32:00.274Z,4120
2017-10-02T07:33:00.181Z,4068
2017-10-02T07:34:00.267Z,3860
2017-10-02T07:35:00.252Z,3644
2017-10-02T07:36:00.266Z,3660
2017-10-02T07:37:00.225Z,3884
2017-10-02T07:38:00.273Z,4336
2017-10-02T07:39:00.222Z,4932
2017-10-02T07:40:00.230Z,5124
2017-10-02T07:41:00.227Z,4944
2017-10-02T07:42:00.291Z,4980
2017-10-02T07:43:00.230Z,5108
2017-10-02T07:44:00.274Z,5200
2017-10-02T07:45:00.167Z,5756
2017-10-02T07:46:00.163Z,6212
2017-10-02T07:47:00.169Z,6392
2017-10-02T07:48:00.200Z,6860
2017-10-02T07:49:00.167Z,6536
2017-10-02T07:50:00.165Z,5944
2017-10-02T07:51:00.142Z,6032
2017-10-02T07:52:00.175Z,6108
2017-10-02T07:53:00.167Z,6148
2017-10-02T07:54:00.201Z,6252
2017-10-02T07:55:00.194Z,6584
2017-10-02T07:56:00.230Z,6636
2017-10-02T07:57:00.239Z,6704
2017-10-02T07:58:00.209Z,6608
2017-10-02T07:59:00.242Z,6724
2017-10-02T08:00:00.232Z,7244
2017-10-02T08:01:00.232Z,8236
2017-10-02T08:02:00.177Z,8588
2017-10-02T08:03:00.179Z,9040
2017-10-02T08:04:00.275Z,8344
2017-10-02T08:05:00.196Z,7344
2017-10-02T08:06:00.157Z,8188
2017-10-02T08:07:00.203Z,8348
2017-10-02T08:08:00.117Z,9168
2017-10-02T08:09:00.200Z,9600
2017-10-02T08:10:00.318Z,8996
2017-10-02T08:11:00.178Z,9124
2017-10-02T08:12:00.196Z,8416
2017-10-02T08:13:00.177Z,8128
2017-10-02T08:14:00.182Z,6724
2017-10-02T08:15:00.277Z,6988
2017-10-02T08:16:00.192Z,7140
2017-10-02T08:17:00.245Z,8000
2017-10-02T08:18:00.280Z,8068
2017-10-02T08:19:00.287Z,9148
2017-10-02T08:20:00.286Z,8684
2017-10-02T08:21:00.290Z,8708
2017-10-02T08:22:00.226Z,7652
2017-10-02T08:23:00.258Z,6672
2017-10-02T08:24:00.248Z,6456
2017-10-02T08:25:00.319Z,6096
2017-10-02T08:26:00.297Z,6684
2017-10-02T08:27:00.297Z,6172
2017-10-02T08:28:00.197Z,6696
2017-10-02T08:29:00.268Z,6716
2017-10-02T08:30:00.280Z,6256
2017-10-02T08:31:00.201Z,6312
2017-10-02T08:32:00.254Z,6112
2017-10-02T08:33:00.206Z,6192
2017-10-02T08:34:00.223Z,5868
2017-10-02T08:35:00.255Z,6036
2017-10-02T08:36:00.265Z,6368
2017-10-02T08:37:00.260Z,6892
2017-10-02T08:38:00.265Z,7212
2017-10-02T08:39:00.286Z,6712
2017-10-02T08:40:00.269Z,6240
2017-10-02T08:41:00.257Z,6312
2017-10-02T08:42:00.225Z,6280
2017-10-02T08:43:00.213Z,7000
2017-10-02T08:44:00.230Z,7444
2017-10-02T08:45:00.265Z,7228
2017-10-02T08:46:00.264Z,6928
2017-10-02T08:47:00.313Z,7876
2017-10-02T08:48:00.210Z,7760
2017-10-02T08:49:00.310Z,8628
2017-10-02T08:50:00.307Z,9192
2017-10-02T08:51:00.247Z,9820
2017-10-02T08:52:00.314Z,9720
2017-10-02T08:53:00.252Z,9208
2017-10-02T08:54:00.213Z,9288
2017-10-02T08:55:00.264Z,10712
2017-10-02T08:56:00.231Z,11504
2017-10-02T08:57:00.211Z,11960
2017-10-02T08:58:00.265Z,12816
2017-10-02T08:59:00.209Z,13216
2017-10-02T09:00:00.207Z,13804
2017-10-02T09:01:00.268Z,13364
2017-10-02T09:02:00.206Z,13776
2017-10-02T09:03:00.207Z,13488
2017-10-02T09:04:00.211Z,13100
2017-10-02T09:05:00.324Z,15796
2017-10-02T09:06:00.273Z,16720
2017-10-02T09:07:00.321Z,15828
2017-10-02T09:08:00.224Z,16304
2017-10-02T09:09:00.257Z,16524
2017-10-02T09:10:00.326Z,16908
2017-10-02T09:11:00.283Z,15788
2017-10-02T09:12:00.220Z,14712
2017-10-02T09:13:00.279Z,16136
2017-10-02T09:14:00.229Z,15160
2017-10-02T09:15:00.225Z,13108
2017-10-02T09:16:00.312Z,13344
2017-10-02T09:17:00.229Z,13564
2017-10-02T09:18:00.289Z,12700
2017-10-02T09:19:00.280Z,11512
2017-10-02T09:20:00.288Z,11048
2017-10-02T09:21:00.315Z,12064
2017-10-02T09:22:00.315Z,12672
2017-10-02T09:23:00.315Z,11908
2017-10-02T09:24:00.255Z,11340
2017-10-02T09:25:00.320Z,12200
2017-10-02T09:26:00.239Z,12428
2017-10-02T09:27:00.290Z,10696
2017-10-02T09:28:00.320Z,9520
2017-10-02T09:29:00.270Z,9552
2017-10-02T09:30:00.260Z,10864
2017-10-02T09:31:00.252Z,11676
2017-10-02T09:32:00.301Z,11756
2017-10-02T09:33:00.287Z,8704
2017-10-02T09:34:00.293Z,9136
2017-10-02T09:35:00.233Z,10068
2017-10-02T09:36:00.289Z,9868
2017-10-02T09:37:00.253Z,9588
2017-10-02T09:38:00.287Z,9908
2017-10-02T09:39:00.230Z,11520
2017-10-02T09:40:00.261Z,12704
2017-10-02T09:41:00.291Z,13412
2017-10-02T09:42:00.296Z,12356
2017-10-02T09:43:00.292Z,14236
2017-10-02T09:44:00.230Z,14148
2017-10-02T09:45:00.307Z,12488
2017-10-02T09:46:00.373Z,10988
2017-10-02T09:47:00.283Z,10348
2017-10-02T09:48:00.310Z,9416
2017-10-02T09:49:00.313Z,9632
2017-10-02T09:50:00.350Z,8824
2017-10-02T09:51:00.245Z,9972
2017-10-02T09:52:00.312Z,12720
2017-10-02T09:53:00.329Z,14408
2017-10-02T09:54:00.246Z,16204
2017-10-02T09:55:00.347Z,21084
2017-10-02T09:56:00.344Z,21480
2017-10-02T09:57:00.286Z,18400
2017-10-02T09:58:00.287Z,15544
2017-10-02T09:59:00.342Z,16460
2017-10-02T10:00:00.253Z,15548
2017-10-02T10:01:00.248Z,13980
2017-10-02T10:02:00.350Z,13068
2017-10-02T10:03:00.287Z,13000
2017-10-02T10:04:00.337Z,13652
2017-10-02T10:05:00.221Z,13780
2017-10-02T10:06:00.246Z,12624
2017-10-02T10:07:00.256Z,13936
2017-10-02T10:08:00.228Z,15056
2017-10-02T10:09:00.253Z,11916
2017-10-02T10:10:00.256Z,11964
2017-10-02T10:11:00.249Z,11692
2017-10-02T10:12:00.265Z,10404
2017-10-02T10:13:00.253Z,10684
2017-10-02T10:14:00.259Z,11364
2017-10-02T10:15:00.318Z,11296
2017-10-02T10:16:00.346Z,13856
2017-10-02T10:17:00.360Z,14248
2017-10-02T10:18:00.271Z,12292
2017-10-02T10:19:00.319Z,12020
2017-10-02T10:20:00.269Z,12956
2017-10-02T10:21:00.368Z,13236
2017-10-02T10:22:00.320Z,14060
2017-10-02T10:23:00.285Z,14556
2017-10-02T10:24:00.351Z,15096
2017-10-02T10:25:00.333Z,17556
2017-10-02T10:26:00.258Z,22112
2017-10-02T10:27:00.232Z,25696
2017-10-02T10:28:00.291Z,28544
2017-10-02T10:29:00.271Z,23776
2017-10-02T10:30:00.265Z,19916
2017-10-02T10:31:00.261Z,24288
2017-10-02T10:32:00.219Z,29600
2017-10-02T10:33:00.273Z,32096
2017-10-02T10:34:00.291Z,31872
2017-10-02T10:35:00.399Z,35232
2017-10-02T10:36:00.310Z,33504
2017-10-02T10:37:00.329Z,30432
2017-10-02T10:38:00.328Z,30656
2017-10-02T10:39:00.334Z,29184
2017-10-02T10:40:00.362Z,28352
2017-10-02T10:41:00.357Z,27552
2017-10-02T10:42:00.337Z,24672
2017-10-02T10:43:00.299Z,22400
2017-10-02T10:44:00.334Z,20020
2017-10-02T10:45:00.383Z,17984
2017-10-02T10:46:00.318Z,15740
2017-10-02T10:47:00.375Z,16532
2017-10-02T10:48:00.389Z,17108
2017-10-02T10:49:00.284Z,16468
2017-10-02T10:50:00.291Z,15124
2017-10-02T10:51:00.342Z,13964
2017-10-02T10:52:00.283Z,13632
2017-10-02T10:53:00.300Z,14592
2017-10-02T10:54:00.341Z,14832
2017-10-02T10:55:00.306Z,14848
2017-10-02T10:56:00.302Z,14868
2017-10-02T10:57:00.307Z,15112
2017-10-02T10:58:00.318Z,15884
2017-10-02T10:59:00.385Z,17260
2017-10-02T11:00:00.320Z,18076
2017-10-02T11:01:00.316Z,19800
2017-10-02T11:02:00.320Z,20236
2017-10-02T11:03:00.325Z,20724
2017-10-02T11:04:00.348Z,22080
2017-10-02T11:05:00.366Z,22336
2017-10-02T11:06:00.346Z,20900
2017-10-02T11:07:00.352Z,19792
2017-10-02T11:08:00.262Z,18896
2017-10-02T11:09:00.314Z,18096
2017-10-02T11:10:00.313Z,18552
2017-10-02T11:11:00.268Z,20324
2017-10-02T11:12:00.313Z,21888
2017-10-02T11:13:00.295Z,20992
2017-10-02T11:14:00.312Z,24032
2017-10-02T11:15:00.312Z,30208
2017-10-02T11:16:00.318Z,35392
2017-10-02T11:17:00.314Z,33216
2017-10-02T11:18:00.350Z,31040
2017-10-02T11:19:00.318Z,28832
2017-10-02T11:20:00.318Z,28512
2017-10-02T11:21:00.356Z,25024
2017-10-02T11:22:00.294Z,23360
2017-10-02T11:23:00.292Z,23008
2017-10-02T11:24:00.353Z,22208
2017-10-02T11:25:00.360Z,22080
2017-10-02T11:26:00.409Z,21696
2017-10-02T11:27:00.367Z,19788
2017-10-02T11:28:00.402Z,18028
2017-10-02T11:29:00.312Z,18728
2017-10-02T11:30:00.366Z,21664
2017-10-02T11:31:00.368Z,26592
2017-10-02T11:32:00.346Z,31136
2017-10-02T11:33:00.411Z,33568
2017-10-02T11:34:00.308Z,38304
2017-10-02T11:35:00.344Z,43584
2017-10-02T11:36:00.329Z,44960
2017-10-02T11:37:00.350Z,43360
2017-10-02T11:38:00.442Z,46336
2017-10-02T11:39:00.314Z,41088
2017-10-02T11:40:00.311Z,30496
2017-10-02T11:41:00.350Z,24960
2017-10-02T11:42:00.372Z,20960
2017-10-02T11:43:00.369Z,18268
2017-10-02T11:44:00.317Z,19016
2017-10-02T11:45:00.420Z,20180
2017-10-02T11:46:00.442Z,24224
2017-10-02T11:47:00.379Z,36128
2017-10-02T11:48:00.372Z,39232
2017-10-02T11:49:00.415Z,36928
2017-10-02T11:50:00.437Z,35808
2017-10-02T11:51:00.335Z,30560
2017-10-02T11:52:00.321Z,22560
2017-10-02T11:53:00.385Z,16892
2017-10-02T11:54:00.375Z,16396
2017-10-02T11:55:00.357Z,16624
2017-10-02T11:56:00.391Z,17248
2017-10-02T11:57:00.380Z,16372
2017-10-02T11:58:00.361Z,20956
2017-10-02T11:59:00.429Z,22752
2017-10-02T12:00:00.329Z,21760
2017-10-02T12:01:00.366Z,21284
2017-10-02T12:02:00.326Z,22400
2017-10-02T12:03:00.432Z,19540
2017-10-02T12:04:00.382Z,19880
2017-10-02T12:05:00.393Z,23616
2017-10-02T12:06:00.384Z,29568
2017-10-02T12:07:00.369Z,36352
2017-10-02T12:08:00.399Z,44768
2017-10-02T12:09:00.456Z,52832
2017-10-02T12:10:00.387Z,54912
2017-10-02T12:11:00.444Z,54656
2017-10-02T12:12:00.544Z,53152
2017-10-02T12:13:00.391Z,51040
2017-10-02T12:14:00.439Z,47424
2017-10-02T12:15:00.393Z,47264
2017-10-02T12:16:00.372Z,48032
2017-10-02T12:17:00.397Z,49632
2017-10-02T12:18:00.405Z,51360
2017-10-02T12:19:00.369Z,51168
2017-10-02T12:20:00.399Z,47552
2017-10-02T12:21:00.393Z,43424
2017-10-02T12:22:00.339Z,42848
2017-10-02T12:23:00.448Z,55488
2017-10-02T12:24:00.357Z,61088
2017-10-02T12:25:00.403Z,68672
2017-10-02T12:26:00.355Z,88320
2017-10-02T12:27:00.424Z,72224
2017-10-02T12:28:00.403Z,66912
2017-10-02T12:29:00.430Z,59680
2017-10-02T12:30:00.377Z,62880
2017-10-02T12:31:00.439Z,86368
2017-10-02T12:32:00.414Z,70304
2017-10-02T12:33:00.387Z,69280
2017-10-02T12:34:00.429Z,90016
2017-10-02T12:35:00.406Z,75808
2017-10-02T12:36:00.452Z,91040
2017-10-02T12:37:00.443Z,76032
2017-10-02T12:38:00.454Z,63584
2017-10-02T12:39:00.413Z,59392
2017-10-02T12:40:00.356Z,55136
2017-10-02T12:41:00.384Z,53120
2017-10-02T12:42:00.448Z,54368
2017-10-02T12:43:00.489Z,55744
2017-10-02T12:44:00.413Z,63136
2017-10-02T12:45:00.452Z,75072
2017-10-02T12:46:00.410Z,69504
2017-10-02T12:47:00.390Z,59008
2017-10-02T12:48:00.415Z,50976
2017-10-02T12:49:00.398Z,49952
2017-10-02T12:50:00.415Z,56160
2017-10-02T12:51:00.388Z,57248
2017-10-02T12:52:00.388Z,48064
2017-10-02T12:53:00.360Z,37920
2017-10-02T12:54:00.377Z,31648
2017-10-02T12:55:00.384Z,27328
2017-10-02T12:56:00.399Z,24512
2017-10-02T12:57:00.463Z,21248
2017-10-02T12:58:00.443Z,19052
2017-10-02T12:59:00.401Z,18904
2017-10-02T13:00:00.371Z,20704
2017-10-02T13:01:00.427Z,26496
2017-10-02T13:02:00.465Z,57184
2017-10-02T13:03:00.463Z,91968
2017-10-02T13:04:00.469Z,82016
2017-10-02T13:05:00.427Z,37984
2017-10-02T13:06:00.365Z,26240
2017-10-02T13:07:00.493Z,23424
2017-10-02T13:08:00.422Z,23968
2017-10-02T13:09:00.448Z,25344
2017-10-02T13:10:00.421Z,29152
2017-10-02T13:11:00.396Z,64352
2017-10-02T13:12:00.469Z,40160
2017-10-02T13:13:00.428Z,36288
2017-10-02T13:14:00.493Z,44384
2017-10-02T13:15:00.385Z,85312
2017-10-02T13:16:00.438Z,80096
2017-10-02T13:17:00.455Z,112768
2017-10-02T13:18:00.473Z,103456
2017-10-02T13:19:00.380Z,68672
2017-10-02T13:20:00.450Z,95680
2017-10-02T13:21:00.481Z,83776
2017-10-02T13:22:00.395Z,65376
2017-10-02T13:23:00.494Z,74432
2017-10-02T13:24:00.429Z,75584
2017-10-02T13:25:00.374Z,72832
2017-10-02T13:26:00.349Z,73984
2017-10-02T13:27:00.351Z,76800
2017-10-02T13:28:00.419Z,77568
2017-10-02T13:29:00.396Z,54464
2017-10-02T13:30:00.422Z,42400
2017-10-02T13:31:00.373Z,55488
2017-10-02T13:32:00.356Z,60576
2017-10-02T13:33:00.390Z,83360
2017-10-02T13:34:00.424Z,82080
2017-10-02T13:35:00.318Z,76928
2017-10-02T13:36:00.472Z,53792
2017-10-02T13:37:00.476Z,52000
2017-10-02T13:38:00.468Z,33024
2017-10-02T13:39:00.417Z,32288
2017-10-02T13:40:00.436Z,37664
2017-10-02T13:41:00.385Z,68864
2017-10-02T13:42:00.443Z,72000
2017-10-02T13:43:00.445Z,69984
2017-10-02T13:44:00.423Z,86848
2017-10-02T13:45:00.418Z,81280